Home > Products > Valid Products > MTR

000
SAUS45 KFGZ 231358
MTRFLG
METAR KFLG 231357Z 00000KT 10SM CLR 13/06 A3043 RMK AO2 SLP197
T01330061





000
SAUS45 KFGZ 231357
MTRRQE
METAR KRQE 231353Z AUTO 00000KT 10SM CLR 19/08 A3046 RMK AO2 SLP175
T01890083 TSNO





000
SAUS45 KFGZ 231258
MTRFLG
METAR KFLG 231257Z AUTO 00000KT 10SM CLR 12/04 A3042 RMK AO2 SLP190
T01220044 TSNO





000
SAUS45 KFGZ 231158
MTRFLG
METAR KFLG 231157Z AUTO 00000KT 10SM CLR 13/05 A3041 RMK AO2 SLP184
T01330050 10172 20128 55003 TSNO





000
SAUS45 KFGZ 231058
MTRFLG
METAR KFLG 231057Z AUTO 00000KT 10SM CLR 13/04 A3040 RMK AO2 SLP178
T01330044 TSNO





000
SAUS45 KFGZ 230958
MTRFLG
METAR KFLG 230957Z AUTO 00000KT 10SM CLR 14/04 A3041 RMK AO2 SLP183
T01390044 TSNO





000
SAUS45 KFGZ 230858
MTRFLG
METAR KFLG 230857Z AUTO 00000KT 10SM CLR 13/04 A3042 RMK AO2 SLP188
T01330044 50001 TSNO





000
SAUS45 KFGZ 230758
MTRFLG
METAR KFLG 230757Z AUTO 00000KT 10SM CLR 14/04 A3042 RMK AO2 SLP191
T01390039 TSNO





000
SAUS45 KFGZ 230658
MTRFLG
METAR KFLG 230657Z AUTO 00000KT 10SM CLR 16/04 A3042 RMK AO2 SLP184
T01610039 403060094 TSNO





000
SAUS45 KFGZ 230558
MTRFLG
METAR KFLG 230557Z AUTO 00000KT 10SM FEW100 17/04 A3042 RMK AO2
SLP179 T01720044 10306 20172 51010 TSNO





000
SAUS45 KFGZ 230458
MTRFLG
METAR KFLG 230457Z AUTO 00000KT 10SM CLR 19/04 A3041 RMK AO2 SLP172
T01940044 TSNO





000
SAUS45 KFGZ 230358
MTRFLG
METAR KFLG 230357Z AUTO 26003KT 10SM CLR 22/04 A3040 RMK AO2 SLP169
T02170044 TSNO





000
SAUS45 KFGZ 230258
MTRFLG
METAR KFLG 230257Z 27004KT 10SM CLR 24/03 A3038 RMK AO2 SLP166
T02440033 53002





000
SAUS45 KFGZ 230158
MTRFLG
METAR KFLG 230157Z VRB04KT 10SM CLR 27/03 A3037 RMK AO2 SLP171
T02670028





000
SAUS45 KFGZ 230058
MTRFLG
METAR KFLG 230057Z 25008KT 10SM CLR 29/03 A3037 RMK AO2 SLP175
T02890028





000
SAUS45 KFGZ 222358
MTRFLG
METAR KFLG 222357Z 20004KT 10SM FEW120 29/03 A3037 RMK AO2 SLP176
T02890028 10300 20261 56012





000
SAUS45 KFGZ 222258
MTRFLG
METAR KFLG 222257Z 00000KT 10SM SCT110 29/02 A3038 RMK AO2 SLP173
T02940017





000
SAUS45 KFGZ 222214
MTRFLG
SPECI KFLG 222213Z VRB05KT 10SM BKN110 28/02 A3039 RMK AO2 T02830022





000
SAUS45 KFGZ 222158
MTRFLG
METAR KFLG 222157Z VRB04KT 2 1/2SM HZ BKN110 29/03 A3040 RMK AO2
SLP180 T02890033





000
SAUS45 KFGZ 222059
MTRFLG
METAR KFLG 222057Z 05006KT 10SM SCT120 29/03 A3041 RMK AO2 SLP183
T02890028 58008





000
SAUS45 KFGZ 222058 COR
MTRRQE
METAR KRQE 222053Z AUTO VRB03G18KT 10SM CLR 33/M02 A3037 RMK AO2
SLP142 T03281017 58012 TSNO





000
SAUS45 KFGZ 221958
MTRFLG
METAR KFLG 221957Z VRB06KT 10SM SCT100 BKN120 27/04 A3043 RMK AO2
SLP195 T02720044





000
SAUS45 KFGZ 221858
MTRFLG
METAR KFLG 221857Z 09010G16KT 070V140 10SM OVC100 27/M02 A3044 RMK
AO2 SLP199 T02721017





000
SAUS45 KFGZ 221758
MTRFLG
METAR KFLG 221757Z 04007KT 10SM OVC100 28/M01 A3044 RMK AO2 SLP196
T02781006 10278 20094 50002





000
SAUS45 KFGZ 221658
MTRFLG
METAR KFLG 221657Z VRB06KT 10SM BKN100 27/00 A3045 RMK AO2 SLP190
T02670000





000
SAUS45 KFGZ 221558
MTRFLG
METAR KFLG 221557Z 05005KT 10SM BKN095 25/01 A3045 RMK AO2 SLP189
T02500006





000
SAUS45 KFGZ 221458
MTRFLG
METAR KFLG 221457Z 00000KT 10SM CLR 21/06 A3044 RMK AO2 SLP191
T02060061 51010





000
SAUS45 KFGZ 221358
MTRFLG
METAR KFLG 221357Z 00000KT 10SM CLR 15/05 A3043 RMK AO2 SLP194
T01500050





000
SAUS45 KFGZ 221357
MTRRQE
METAR KRQE 221353Z AUTO 18003KT 10SM CLR 17/02 A3040 RMK AO2 SLP159
T01670022 TSNO





000
SAUS45 KFGZ 221258
MTRFLG
METAR KFLG 221257Z 00000KT 10SM CLR 11/02 A3041 RMK AO2 SLP196
T01060022





000
SAUS45 KFGZ 221158
MTRFLG
METAR KFLG 221157Z AUTO 00000KT 10SM CLR 11/02 A3040 RMK AO2 SLP188
T01060017 10172 20106 53003 TSNO





000
SAUS45 KFGZ 221058
MTRFLG
METAR KFLG 221057Z AUTO 00000KT 10SM CLR 12/02 A3039 RMK AO2 SLP180
T01220017 TSNO





000
SAUS45 KFGZ 220958
MTRFLG
METAR KFLG 220957Z AUTO 00000KT 10SM CLR 13/02 A3039 RMK AO2 SLP182
T01280017 TSNO





000
SAUS45 KFGZ 220859
MTRFLG
METAR KFLG 220857Z AUTO 29003KT 8SM CLR 14/01 A3039 RMK AO2 SLP179
T01390011 56004 TSNO





000
SAUS45 KFGZ 220758
MTRFLG
METAR KFLG 220757Z AUTO 25003KT 10SM CLR 14/02 A3039 RMK AO2 SLP179
T01390017 TSNO





000
SAUS45 KFGZ 220658
MTRFLG
METAR KFLG 220657Z AUTO 00000KT 10SM CLR 14/02 A3039 RMK AO2 SLP184
T01390022 402890083 TSNO





000
SAUS45 KFGZ 220558
MTRFLG
METAR KFLG 220557Z AUTO 00000KT 10SM CLR 14/03 A3040 RMK AO2 SLP187
T01440028 10278 20144 51011 TSNO





000
SAUS45 KFGZ 220458
MTRFLG
METAR KFLG 220457Z AUTO 00000KT 10SM CLR 18/03 A3040 RMK AO2 SLP181
T01830028 TSNO





000
SAUS45 KFGZ 220358
MTRFLG
METAR KFLG 220357Z 00000KT 10SM CLR 21/02 A3038 RMK AO2 SLP173
T02060022





000
SAUS45 KFGZ 220258
MTRFLG
METAR KFLG 220257Z 26003KT 10SM CLR 22/03 A3036 RMK AO2 SLP162
T02220028 53005





000
SAUS45 KFGZ 220158
MTRFLG
METAR KFLG 220157Z AUTO 25008KT 10SM CLR 26/02 A3035 RMK AO2 SLP169
T02560017 TSNO





000
SAUS45 KFGZ 220058
MTRFLG
METAR KFLG 220057Z 24009G18KT 10SM CLR 27/02 A3034 RMK AO2 SLP171
T02720017





000
SAUS45 KFGZ 212359
MTRFLG
METAR KFLG 212357Z 23004KT 10SM CLR 28/02 A3034 RMK AO2 SLP161
T02780017 10289 20244 56009





000
SAUS45 KFGZ 212358 COR
MTRRQE
METAR KRQE 212353Z AUTO 00000KT 10SM FEW110 31/01 A3029 RMK AO2
SLP115 T03110011 10322 20278 56014 TSNO





000
SAUS45 KFGZ 212259
MTRFLG
METAR KFLG 212257Z VRB03KT 10SM CLR 28/01 A3035 RMK AO2 SLP165
T02830011





000
SAUS45 KFGZ 212158
MTRFLG
METAR KFLG 212157Z 21013G19KT 10SM CLR 27/01 A3036 RMK AO2 SLP179
T02720006





000
SAUS45 KFGZ 212059
MTRFLG
METAR KFLG 212057Z 22009G21KT 10SM CLR 27/01 A3038 RMK AO2 SLP183
T02720011 58008





000
SAUS45 KFGZ 211958
MTRFLG
METAR KFLG 211957Z 22015KT 10SM CLR 27/02 A3039 RMK AO2 SLP183
T02670017





000
SAUS45 KFGZ 211858
MTRFLG
METAR KFLG 211857Z 22009G16KT 180V240 10SM CLR 26/03 A3040 RMK AO2
SLP188 T02560028





000
SAUS45 KFGZ 211758
MTRFLG
METAR KFLG 211757Z 25013G18KT 10SM CLR 25/03 A3041 RMK AO2 SLP189
T02500028 10250 20100 53001





000
SAUS45 KFGZ 211658
MTRFLG
METAR KFLG 211657Z 26010G18KT 10SM CLR 24/03 A3040 RMK AO2 SLP185
T02390033





000
SAUS45 KFGZ 211558
MTRFLG
METAR KFLG 211557Z 25011G24KT 10SM CLR 23/03 A3040 RMK AO2 SLP182
T02280033





000
SAUS45 KFGZ 211458
MTRFLG
METAR KFLG 211457Z VRB05KT 10SM CLR 22/02 A3040 RMK AO2 SLP182
T02170022 51013





000
SAUS45 KFGZ 211358
MTRFLG
METAR KFLG 211357Z 00000KT 10SM CLR 14/03 A3039 RMK AO2 SLP186
T01440033





000
SAUS45 KFGZ 211258
MTRFLG
METAR KFLG 211257Z 00000KT 10SM CLR 10/01 A3037 RMK AO2 SLP186
T01000006





000
SAUS45 KFGZ 211158
MTRFLG
METAR KFLG 211157Z AUTO 29003KT 10SM CLR 14/00 A3036 RMK AO2 SLP171
T01390000 10156 20083 53002 TSNO





000
SAUS45 KFGZ 211058
MTRFLG
METAR KFLG 211057Z AUTO 27008KT 10SM CLR 13/01 A3034 RMK AO2 SLP165
T01330006 TSNO





000
SAUS45 KFGZ 210958
MTRFLG
METAR KFLG 210957Z AUTO 23003KT 10SM CLR 10/01 A3035 RMK AO2 SLP175
T01000011 TSNO





000
SAUS45 KFGZ 210858
MTRFLG
METAR KFLG 210857Z AUTO 00000KT 10SM CLR 11/01 A3035 RMK AO2 SLP175
T01060011 58000 TSNO





000
SAUS45 KFGZ 210758
MTRFLG
METAR KFLG 210757Z AUTO 00000KT 10SM CLR 13/02 A3035 RMK AO2 SLP175
T01280017 TSNO





000
SAUS45 KFGZ 210658
MTRFLG
METAR KFLG 210657Z AUTO 00000KT 10SM CLR 13/02 A3035 RMK AO2 SLP173
T01280017 402670117 TSNO





000
SAUS45 KFGZ 210558
MTRFLG
METAR KFLG 210557Z AUTO 00000KT 10SM CLR 14/02 A3035 RMK AO2 SLP174
T01440022 10261 20144 51008 TSNO





000
SAUS45 KFGZ 210459
MTRFLG
METAR KFLG 210457Z AUTO 25003KT 10SM CLR 17/02 A3034 RMK AO2 SLP168
T01670022 TSNO





000
SAUS45 KFGZ 210359
MTRFLG
METAR KFLG 210357Z AUTO 23003KT 10SM CLR 18/02 A3034 RMK AO2 SLP166
T01780022 TSNO





000
SAUS45 KFGZ 210258
MTRFLG
METAR KFLG 210257Z 21005KT 10SM CLR 21/02 A3032 RMK AO2 SLP158
T02060022 53007





000
SAUS45 KFGZ 210158
MTRFLG
METAR KFLG 210157Z 22012KT 10SM CLR 24/02 A3030 RMK AO2 SLP152
T02390017





000
SAUS45 KFGZ 210058
MTRFLG
METAR KFLG 210057Z 21012KT 10SM CLR 25/01 A3029 RMK AO2 SLP156
T02500011





000
SAUS45 KFGZ 202358
MTRFLG
METAR KFLG 202357Z 26010G18KT 10SM CLR 26/02 A3029 RMK AO2 SLP149
T02610017 10267 20228 58013





000
SAUS45 KFGZ 202258
MTRFLG
METAR KFLG 202257Z 23014G22KT 10SM CLR 26/02 A3031 RMK AO2 SLP155
T02610022





000
SAUS45 KFGZ 202158
MTRFLG
METAR KFLG 202157Z 20014G22KT 10SM CLR 26/03 A3033 RMK AO2 SLP162
T02610028





000
SAUS45 KFGZ 202058
MTRFLG
METAR KFLG 202057Z 26010G21KT 10SM CLR 26/02 A3034 RMK AO2 SLP171
T02560022 58007





000
SAUS45 KFGZ 201958
MTRFLG
METAR KFLG 201957Z 25010G16KT 10SM CLR 24/02 A3035 RMK AO2 SLP178
T02440017





000
SAUS45 KFGZ 201858
MTRFLG
METAR KFLG 201857Z 24015G21KT 10SM CLR 25/03 A3037 RMK AO2 SLP177
T02500033





000
SAUS45 KFGZ 201758
MTRFLG
METAR KFLG 201757Z 23007G17KT 10SM CLR 23/05 A3037 RMK AO2 SLP177
T02280050 10228 20117 58000





000
SAUS45 KFGZ 201658
MTRFLG
METAR KFLG 201657Z 23007KT 10SM CLR 22/06 A3037 RMK AO2 SLP170
T02170056





000
SAUS45 KFGZ 201558
MTRFLG
METAR KFLG 201557Z VRB05KT 10SM CLR 21/05 A3037 RMK AO2 SLP171
T02110050





000
SAUS45 KFGZ 201458
MTRFLG
METAR KFLG 201457Z 00000KT 10SM CLR 19/07 A3037 RMK AO2 SLP175
T01890067 53013





    US Dept of Commerce
    National Oceanic and Atmospheric Administration
    National Weather Service
    1325 East West Highway
    Silver Spring, MD 20910
    Page Author: NWS Internet Services Team
Disclaimer
Information Quality
Credits
Glossary
Privacy Policy
Freedom of Information Act (FOIA)
About Us
Career Opportunities